Loves Park, Illinois
Current Conditions -  °F | °C
As of 1:54 AM on Friday 19 Dec 2014 (Local Time) from KRFD Reporting Station
Overcast Overcast  
Wind Chill: 27°   Ceiling: 1700
Heat Index: 27°   Visibility: 10mi
Dew Point: 20°   Wind: 3mph
Humidity: 75%   Direction: 350°N
Pressure: 30.3"   Gusts: NA
Location:  42.32°N, 89.06°W
Report Text: KRFD 190754Z 35003KT 10SM OVC017 M03/M07 A3030 RMK AO2 SNB32E49 SLP272 P0000 T10281067
Loading
Personal Weather Stations






























Interactive Weather Map New forecast layout! Learn more

10-Day Weather Forecast

Advertisements
Track Severe Weather on mobile